Ruby M — WCX3165 — position and weather

sailwx.info

Track history (hours):
 
Tides and Currents Weather Stations Pressure Air Temp Water Temp Dewpoint Dewpoint Depression Visibility Wind Speed Wind Dir Waves Ship Positions

Ruby M

Owner: Dann Ocean Towing, TAMPA, FL. More information available from US FCC via Universal Licensing System and Coast Guard Vessel Documentation Center.

Last reported at 2018-Jun-17 14:23 UTC. Time now 2018-Jun-18 01:40 UTC.
Position N 40°47' W 073°59'.

Length 37 m; draft 3.4 m.

Type: Tow > 200 m length. MMSI: 366994750.

Date/timePositionNaut miles runAvg speedWind from/ knotsBaromVisibWave heightAir tempDewpointWater temp
2018-Jun-17 14:23N 40°47' W 073°59'3 7.6
2018-Jun-17 14:00N 40°44' W 074°01'4 7.4
2018-Jun-17 13:30N 40°41' W 074°02'3 6.4
2018-Jun-17 13:00N 40°39' W 074°06'5 1.6
2018-Jun-17 10:05N 40°38' W 074°12'0 0.1
2018-Jun-17 10:00N 40°38' W 074°12'0 0.0
2018-Jun-17 09:26N 40°38' W 074°12'0 0.1
2018-Jun-17 09:00N 40°38' W 074°12'3 6.3
2018-Jun-17 08:30N 40°39' W 074°07'2 3.1
2018-Jun-17 08:00N 40°39' W 074°06'4 8.8
2018-Jun-17 07:30N 40°42' W 074°02'510.0
2018-Jun-17 07:00N 40°47' W 073°60'0 0.0
2018-Jun-15 14:24N 40°47' W 073°60'411.2
2018-Jun-15 14:00N 40°43' W 074°02'3 6.9
2018-Jun-15 13:30N 40°40' W 074°05'0 0.4
2018-Jun-15 13:00N 40°40' W 074°05'0 0.0
2018-Jun-15 12:27N 40°40' W 074°05'2 3.7
2018-Jun-15 11:59N 40°39' W 074°03'3 6.0
2018-Jun-15 11:30N 40°36' W 074°02'4 5.9
2018-Jun-15 10:53N 40°33' W 074°01'0 0.5
2018-Jun-15 10:29N 40°33' W 074°01'40 5.5
2018-Jun-15 03:13N 39°53' W 073°60'2 5.8
2018-Jun-15 02:49N 39°51' W 073°60'3 5.9
2018-Jun-15 02:23N 39°48' W 073°60'2 6.1
2018-Jun-15 02:00N 39°46' W 073°60'3 6.0
2018-Jun-15 01:30N 39°43' W 074°00'4 6.2
2018-Jun-15 00:56N 39°40' W 074°02'3 6.0
2018-Jun-15 00:30N 39°38' W 074°04'5 5.8
2018-Jun-14 23:37N 39°34' W 074°08'1 5.6
2018-Jun-14 23:28N 39°33' W 074°09'67 5.8
2018-Jun-14 11:55N 38°38' W 074°57'4 6.0
2018-Jun-14 11:18N 38°34' W 074°58'2 6.1
2018-Jun-14 10:54N 38°32' W 074°58'2 6.0
2018-Jun-14 10:30N 38°30' W 074°58'3 6.1
2018-Jun-14 10:00N 38°27' W 074°59'15 0.3
2018-Jun-12 13:12N 38°41' W 074°54'2 6.6
2018-Jun-12 12:56N 38°43' W 074°53'3 6.4
2018-Jun-12 12:24N 38°46' W 074°52'3 6.5
2018-Jun-12 11:59N 38°48' W 074°50'3 6.5
2018-Jun-12 11:29N 38°51' W 074°49'37 6.4
2018-Jun-12 05:42N 39°21' W 074°20'1 6.4
2018-Jun-12 05:30N 39°22' W 074°19'17 6.3
2018-Jun-12 02:51N 39°35' W 074°05'3 6.5
2018-Jun-12 02:24N 39°38' W 074°04'59 5.6
2018-Jun-11 15:58N 40°37' W 074°03'2 4.5
2018-Jun-11 15:29N 40°39' W 074°03'2 4.1
2018-Jun-11 14:58N 40°40' W 074°05'0 0.1
2018-Jun-11 14:28N 40°40' W 074°05'5 4.7
2018-Jun-11 13:19N 40°42' W 073°58'0 1.1
2018-Jun-11 12:58N 40°42' W 073°59'1 1.8
2018-Jun-11 12:18N 40°42' W 074°00'2 6.9
2018-Jun-11 11:58N 40°40' W 074°02'2 3.2
2018-Jun-11 11:30N 40°41' W 074°04'0 0.0
2018-Jun-11 10:58N 40°41' W 074°04'0 0.2
2018-Jun-11 10:30N 40°40' W 074°04'1 2.8
2018-Jun-11 10:00N 40°39' W 074°05'1 1.5
2018-Jun-11 09:28N 40°39' W 074°06'0 0.0
2018-Jun-11 08:57N 40°39' W 074°06'0 0.0
2018-Jun-11 08:30N 40°39' W 074°06'0 0.0
2018-Jun-11 07:59N 40°39' W 074°06'0 0.0
2018-Jun-11 07:29N 40°39' W 074°06'0 0.0
2018-Jun-11 07:00N 40°39' W 074°06'0 0.0
2018-Jun-11 06:30N 40°39' W 074°06'0 0.0
2018-Jun-11 06:00N 40°39' W 074°06'0 0.0
2018-Jun-11 05:25N 40°39' W 074°06'0 0.0
2018-Jun-11 05:00N 40°39' W 074°06'0 0.0
2018-Jun-11 04:29N 40°39' W 074°06'0 0.0
2018-Jun-11 04:00N 40°39' W 074°06'0 0.0
2018-Jun-11 03:28N 40°39' W 074°06'0 0.0
2018-Jun-11 03:00N 40°39' W 074°06'0 0.0
2018-Jun-11 02:30N 40°39' W 074°06'0 0.0
2018-Jun-11 02:00N 40°39' W 074°06'0 0.0
2018-Jun-11 01:30N 40°39' W 074°06'0 0.0
2018-Jun-11 01:00N 40°39' W 074°06'0 0.0
2018-Jun-11 00:30N 40°39' W 074°06'0 0.0
2018-Jun-11 00:00N 40°39' W 074°06'0 0.0
2018-Jun-10 23:21N 40°39' W 074°06'0 0.0
2018-Jun-10 23:00N 40°39' W 074°06'0 0.0
2018-Jun-10 22:24N 40°39' W 074°06'0 0.0
2018-Jun-10 21:56N 40°39' W 074°06'0 0.0
2018-Jun-10 21:30N 40°39' W 074°06'0 0.0
2018-Jun-10 20:59N 40°39' W 074°06'0 0.0
2018-Jun-10 20:30N 40°39' W 074°06'0 0.0
2018-Jun-10 19:59N 40°39' W 074°06'0 0.0
2018-Jun-10 19:27N 40°39' W 074°06'0 0.0
2018-Jun-10 19:00N 40°39' W 074°06'0 0.0
2018-Jun-10 18:30N 40°39' W 074°06'0 0.0
2018-Jun-10 18:00N 40°39' W 074°06'0 0.0
2018-Jun-10 17:25N 40°39' W 074°06'0 0.0
2018-Jun-10 16:58N 40°39' W 074°06'0 0.0
2018-Jun-10 16:26N 40°39' W 074°06'0 0.0
2018-Jun-10 15:53N 40°39' W 074°06'0 0.0
2018-Jun-10 15:29N 40°39' W 074°06'0 0.0
2018-Jun-10 14:59N 40°39' W 074°06'0 0.0
2018-Jun-10 14:30N 40°39' W 074°06'0 0.0
2018-Jun-10 13:30N 40°39' W 074°06'0 0.0
2018-Jun-10 13:00N 40°39' W 074°06'0 0.0
2018-Jun-10 12:29N 40°39' W 074°06'0 0.0
2018-Jun-10 12:00N 40°39' W 074°06'0 0.0
2018-Jun-10 11:30N 40°39' W 074°06'0 0.0
2018-Jun-10 11:00N 40°39' W 074°06'0 0.0
2018-Jun-10 10:30N 40°39' W 074°06'0 0.0
2018-Jun-10 09:53N 40°39' W 074°06'0 0.0
2018-Jun-10 09:30N 40°39' W 074°06'0 0.0
2018-Jun-10 08:58N 40°39' W 074°06'0 0.0
2018-Jun-10 08:30N 40°39' W 074°06'0 0.0
2018-Jun-10 08:00N 40°39' W 074°06'0 0.0
2018-Jun-10 07:30N 40°39' W 074°06'0 0.0
2018-Jun-10 07:00N 40°39' W 074°06'0 0.0
2018-Jun-10 06:30N 40°39' W 074°06'0 0.0
2018-Jun-10 05:59N 40°39' W 074°06'0 0.0
2018-Jun-10 05:30N 40°39' W 074°06'0 0.0
2018-Jun-10 05:00N 40°39' W 074°06'0 0.0
2018-Jun-10 04:30N 40°39' W 074°06'0 0.0
2018-Jun-10 04:00N 40°39' W 074°06'0 0.0
2018-Jun-10 03:30N 40°39' W 074°06'0 0.0
2018-Jun-10 02:59N 40°39' W 074°06'0 0.0
2018-Jun-10 02:28N 40°39' W 074°06'0 0.0
2018-Jun-10 02:00N 40°39' W 074°06'0 0.0
2018-Jun-10 01:30N 40°39' W 074°06'0 0.0
2018-Jun-10 01:00N 40°39' W 074°06'0 0.0
2018-Jun-10 00:30N 40°39' W 074°06'0 0.0
2018-Jun-10 00:00N 40°39' W 074°06'0 0.0
2018-Jun-09 23:29N 40°39' W 074°06'1 2.9
2018-Jun-09 23:00N 40°39' W 074°08'3 3.4
2018-Jun-09 22:11N 40°41' W 074°08'1 3.0
2018-Jun-09 21:52N 40°42' W 074°09'0 0.1
2018-Jun-09 21:02N 40°42' W 074°09'2 0.6
2018-Jun-09 18:24N 40°41' W 074°08'2 5.0
2018-Jun-09 18:01N 40°39' W 074°07'1 2.8
2018-Jun-09 17:30N 40°39' W 074°09'2 0.5
2018-Jun-09 13:51N 40°39' W 074°11'3 8.5
2018-Jun-09 13:30N 40°39' W 074°07'4 8.6
2018-Jun-09 13:00N 40°40' W 074°02'1 2.1
2018-Jun-09 12:31N 40°40' W 074°01'0 0.0
2018-Jun-09 12:00N 40°40' W 074°01'0 0.0
2018-Jun-09 11:31N 40°40' W 074°01'0 0.0
2018-Jun-09 11:00N 40°40' W 074°01'0 0.0
2018-Jun-09 10:31N 40°40' W 074°01'0 0.0
2018-Jun-09 10:00N 40°40' W 074°01'0 0.0
2018-Jun-09 09:30N 40°40' W 074°01'0 0.0
2018-Jun-09 09:00N 40°40' W 074°01'0 0.0
2018-Jun-09 08:30N 40°40' W 074°01'0 0.0
2018-Jun-09 08:01N 40°40' W 074°01'0 0.0
2018-Jun-09 07:30N 40°40' W 074°01'0 0.0
2018-Jun-09 07:00N 40°40' W 074°01'0 0.0
2018-Jun-09 06:30N 40°40' W 074°01'0 0.0
2018-Jun-09 06:00N 40°40' W 074°01'0 0.0
2018-Jun-09 05:31N 40°40' W 074°01'0 0.0
2018-Jun-09 05:01N 40°40' W 074°01'0 0.0
2018-Jun-09 04:30N 40°40' W 074°01'0 0.0
2018-Jun-09 04:00N 40°40' W 074°01'0 0.0
2018-Jun-09 03:30N 40°40' W 074°01'0 0.0
2018-Jun-09 03:01N 40°40' W 074°01'0 0.0
2018-Jun-09 02:31N 40°40' W 074°01'0 0.0
2018-Jun-09 02:00N 40°40' W 074°01'0 0.0
2018-Jun-09 01:30N 40°40' W 074°01'0 0.0
2018-Jun-09 01:01N 40°40' W 074°01'0 0.0
2018-Jun-09 00:31N 40°40' W 074°01'0 0.0
2018-Jun-09 00:00N 40°40' W 074°01'0 0.0
2018-Jun-08 23:30N 40°40' W 074°01'0 0.0
2018-Jun-08 23:00N 40°40' W 074°01'0 0.0
2018-Jun-08 22:30N 40°40' W 074°01'0 0.0
2018-Jun-08 22:01N 40°40' W 074°01'0 0.0
2018-Jun-08 21:31N 40°40' W 074°01'0 0.0
2018-Jun-08 21:00N 40°40' W 074°01'0 0.0
2018-Jun-08 20:31N 40°40' W 074°01'0 0.0
2018-Jun-08 20:00N 40°40' W 074°01'0 0.0
2018-Jun-08 19:30N 40°40' W 074°01'0 0.0
2018-Jun-08 19:00N 40°40' W 074°01'0 0.0
2018-Jun-08 18:30N 40°40' W 074°01'0 0.0
2018-Jun-08 18:01N 40°40' W 074°01'0 0.0
2018-Jun-08 17:30N 40°40' W 074°01'0 0.0
2018-Jun-08 17:00N 40°40' W 074°01'0 0.0
2018-Jun-08 16:30N 40°40' W 074°01'0 0.2
2018-Jun-08 16:00N 40°40' W 074°01'2 3.1
2018-Jun-08 15:30N 40°41' W 074°00'3 5.7
2018-Jun-08 15:00N 40°40' W 074°03'4 7.5
2018-Jun-08 14:30N 40°39' W 074°08'1 1.2
2018-Jun-08 13:19N 40°40' W 074°09'0 0.2
2018-Jun-08 12:59N 40°40' W 074°09'0 0.2
2018-Jun-08 12:26N 40°40' W 074°09'0 0.0
2018-Jun-08 12:00N 40°40' W 074°09'0 0.1
2018-Jun-08 11:27N 40°40' W 074°09'0 0.2
2018-Jun-08 11:00N 40°40' W 074°09'0 0.1
2018-Jun-08 09:51N 40°40' W 074°09'0 0.0
2018-Jun-08 09:29N 40°40' W 074°09'0 0.0
2018-Jun-08 09:01N 40°40' W 074°09'0 0.0
2018-Jun-08 08:30N 40°40' W 074°09'1 2.2
2018-Jun-08 07:58N 40°39' W 074°09'4 8.4
2018-Jun-08 07:31N 40°40' W 074°04'3 5.4
2018-Jun-08 07:01N 40°41' W 074°01'1 2.3
2018-Jun-08 06:31N 40°40' W 074°01'0 0.0
2018-Jun-08 06:01N 40°40' W 074°01'0 0.0
2018-Jun-08 05:30N 40°40' W 074°01'0 0.0
2018-Jun-08 05:01N 40°40' W 074°01'0 0.0
2018-Jun-08 04:30N 40°40' W 074°01'0 0.0
2018-Jun-08 04:01N 40°40' W 074°01'0 0.0
2018-Jun-08 03:30N 40°40' W 074°01'0 0.0
2018-Jun-08 03:01N 40°40' W 074°01'0 0.0
2018-Jun-08 02:30N 40°40' W 074°01'0 0.0
2018-Jun-08 02:01N 40°40' W 074°01'0 0.0
2018-Jun-08 01:30N 40°40' W 074°01'0 0.0
2018-Jun-08 01:00N 40°40' W 074°01'0 0.0
2018-Jun-08 00:31N 40°40' W 074°01'0 0.0
2018-Jun-08 00:00N 40°40' W 074°01'0 0.0
2018-Jun-07 23:31N 40°40' W 074°01'0 0.0
2018-Jun-07 23:01N 40°40' W 074°01'0 0.0
2018-Jun-07 22:30N 40°40' W 074°01'0 0.0
2018-Jun-07 22:01N 40°40' W 074°01'0 0.0
2018-Jun-07 21:31N 40°40' W 074°01'0 0.0
2018-Jun-07 21:01N 40°40' W 074°01'0 0.0
2018-Jun-07 20:30N 40°40' W 074°01'0 0.0
2018-Jun-07 20:00N 40°40' W 074°01'0 0.7
2018-Jun-07 19:30N 40°40' W 074°01'4 7.9
2018-Jun-07 19:01N 40°39' W 074°06'0 0.0
2018-Jun-07 18:31N 40°39' W 074°06'0 0.0
2018-Jun-07 18:00N 40°39' W 074°06'1 2.3
2018-Jun-07 17:30N 40°39' W 074°07'  
Track history (hours):
 
Tides and Currents Weather Stations Pressure Air Temp Water Temp Dewpoint Dewpoint Depression Visibility Wind Speed Wind Dir Waves Ship Positions

Ruby M

Owner: Dann Ocean Towing, TAMPA, FL. More information available from US FCC via Universal Licensing System and Coast Guard Vessel Documentation Center.

Last reported at 2018-Jun-17 14:23 UTC. Time now 2018-Jun-18 01:40 UTC.
Position N 40°47' W 073°59'.

Length 37 m; draft 3.4 m.

Type: Tow > 200 m length. MMSI: 366994750.

Date/timePositionNaut miles runAvg speedWind from/ knotsBaromVisibWave heightAir tempDewpointWater temp
2018-Jun-17 14:23N 40°47' W 073°59'3 7.6
2018-Jun-17 14:00N 40°44' W 074°01'4 7.4
2018-Jun-17 13:30N 40°41' W 074°02'3 6.4
2018-Jun-17 13:00N 40°39' W 074°06'5 1.6
2018-Jun-17 10:05N 40°38' W 074°12'0 0.1
2018-Jun-17 10:00N 40°38' W 074°12'0 0.0
2018-Jun-17 09:26N 40°38' W 074°12'0 0.1
2018-Jun-17 09:00N 40°38' W 074°12'3 6.3
2018-Jun-17 08:30N 40°39' W 074°07'2 3.1
2018-Jun-17 08:00N 40°39' W 074°06'4 8.8
2018-Jun-17 07:30N 40°42' W 074°02'510.0
2018-Jun-17 07:00N 40°47' W 073°60'0 0.0
2018-Jun-15 14:24N 40°47' W 073°60'411.2
2018-Jun-15 14:00N 40°43' W 074°02'3 6.9
2018-Jun-15 13:30N 40°40' W 074°05'0 0.4
2018-Jun-15 13:00N 40°40' W 074°05'0 0.0
2018-Jun-15 12:27N 40°40' W 074°05'2 3.7
2018-Jun-15 11:59N 40°39' W 074°03'3 6.0
2018-Jun-15 11:30N 40°36' W 074°02'4 5.9
2018-Jun-15 10:53N 40°33' W 074°01'0 0.5
2018-Jun-15 10:29N 40°33' W 074°01'40 5.5
2018-Jun-15 03:13N 39°53' W 073°60'2 5.8
2018-Jun-15 02:49N 39°51' W 073°60'3 5.9
2018-Jun-15 02:23N 39°48' W 073°60'2 6.1
2018-Jun-15 02:00N 39°46' W 073°60'3 6.0
2018-Jun-15 01:30N 39°43' W 074°00'4 6.2
2018-Jun-15 00:56N 39°40' W 074°02'3 6.0
2018-Jun-15 00:30N 39°38' W 074°04'5 5.8
2018-Jun-14 23:37N 39°34' W 074°08'1 5.6
2018-Jun-14 23:28N 39°33' W 074°09'67 5.8
2018-Jun-14 11:55N 38°38' W 074°57'4 6.0
2018-Jun-14 11:18N 38°34' W 074°58'2 6.1
2018-Jun-14 10:54N 38°32' W 074°58'2 6.0
2018-Jun-14 10:30N 38°30' W 074°58'3 6.1
2018-Jun-14 10:00N 38°27' W 074°59'15 0.3
2018-Jun-12 13:12N 38°41' W 074°54'2 6.6
2018-Jun-12 12:56N 38°43' W 074°53'3 6.4
2018-Jun-12 12:24N 38°46' W 074°52'3 6.5
2018-Jun-12 11:59N 38°48' W 074°50'3 6.5
2018-Jun-12 11:29N 38°51' W 074°49'37 6.4
2018-Jun-12 05:42N 39°21' W 074°20'1 6.4
2018-Jun-12 05:30N 39°22' W 074°19'17 6.3
2018-Jun-12 02:51N 39°35' W 074°05'3 6.5
2018-Jun-12 02:24N 39°38' W 074°04'59 5.6
2018-Jun-11 15:58N 40°37' W 074°03'2 4.5
2018-Jun-11 15:29N 40°39' W 074°03'2 4.1
2018-Jun-11 14:58N 40°40' W 074°05'0 0.1
2018-Jun-11 14:28N 40°40' W 074°05'5 4.7
2018-Jun-11 13:19N 40°42' W 073°58'0 1.1
2018-Jun-11 12:58N 40°42' W 073°59'1 1.8
2018-Jun-11 12:18N 40°42' W 074°00'2 6.9
2018-Jun-11 11:58N 40°40' W 074°02'2 3.2
2018-Jun-11 11:30N 40°41' W 074°04'0 0.0
2018-Jun-11 10:58N 40°41' W 074°04'0 0.2
2018-Jun-11 10:30N 40°40' W 074°04'1 2.8
2018-Jun-11 10:00N 40°39' W 074°05'1 1.5
2018-Jun-11 09:28N 40°39' W 074°06'0 0.0
2018-Jun-11 08:57N 40°39' W 074°06'0 0.0
2018-Jun-11 08:30N 40°39' W 074°06'0 0.0
2018-Jun-11 07:59N 40°39' W 074°06'0 0.0
2018-Jun-11 07:29N 40°39' W 074°06'0 0.0
2018-Jun-11 07:00N 40°39' W 074°06'0 0.0
2018-Jun-11 06:30N 40°39' W 074°06'0 0.0
2018-Jun-11 06:00N 40°39' W 074°06'0 0.0
2018-Jun-11 05:25N 40°39' W 074°06'0 0.0
2018-Jun-11 05:00N 40°39' W 074°06'0 0.0
2018-Jun-11 04:29N 40°39' W 074°06'0 0.0
2018-Jun-11 04:00N 40°39' W 074°06'0 0.0
2018-Jun-11 03:28N 40°39' W 074°06'0 0.0
2018-Jun-11 03:00N 40°39' W 074°06'0 0.0
2018-Jun-11 02:30N 40°39' W 074°06'0 0.0
2018-Jun-11 02:00N 40°39' W 074°06'0 0.0
2018-Jun-11 01:30N 40°39' W 074°06'0 0.0
2018-Jun-11 01:00N 40°39' W 074°06'0 0.0
2018-Jun-11 00:30N 40°39' W 074°06'0 0.0
2018-Jun-11 00:00N 40°39' W 074°06'0 0.0
2018-Jun-10 23:21N 40°39' W 074°06'0 0.0
2018-Jun-10 23:00N 40°39' W 074°06'0 0.0
2018-Jun-10 22:24N 40°39' W 074°06'0 0.0
2018-Jun-10 21:56N 40°39' W 074°06'0 0.0
2018-Jun-10 21:30N 40°39' W 074°06'0 0.0
2018-Jun-10 20:59N 40°39' W 074°06'0 0.0
2018-Jun-10 20:30N 40°39' W 074°06'0 0.0
2018-Jun-10 19:59N 40°39' W 074°06'0 0.0
2018-Jun-10 19:27N 40°39' W 074°06'0 0.0
2018-Jun-10 19:00N 40°39' W 074°06'0 0.0
2018-Jun-10 18:30N 40°39' W 074°06'0 0.0
2018-Jun-10 18:00N 40°39' W 074°06'0 0.0
2018-Jun-10 17:25N 40°39' W 074°06'0 0.0
2018-Jun-10 16:58N 40°39' W 074°06'0 0.0
2018-Jun-10 16:26N 40°39' W 074°06'0 0.0
2018-Jun-10 15:53N 40°39' W 074°06'0 0.0
2018-Jun-10 15:29N 40°39' W 074°06'0 0.0
2018-Jun-10 14:59N 40°39' W 074°06'0 0.0
2018-Jun-10 14:30N 40°39' W 074°06'0 0.0
2018-Jun-10 13:30N 40°39' W 074°06'0 0.0
2018-Jun-10 13:00N 40°39' W 074°06'0 0.0
2018-Jun-10 12:29N 40°39' W 074°06'0 0.0
2018-Jun-10 12:00N 40°39' W 074°06'0 0.0
2018-Jun-10 11:30N 40°39' W 074°06'0 0.0
2018-Jun-10 11:00N 40°39' W 074°06'0 0.0
2018-Jun-10 10:30N 40°39' W 074°06'0 0.0
2018-Jun-10 09:53N 40°39' W 074°06'0 0.0
2018-Jun-10 09:30N 40°39' W 074°06'0 0.0
2018-Jun-10 08:58N 40°39' W 074°06'0 0.0
2018-Jun-10 08:30N 40°39' W 074°06'0 0.0
2018-Jun-10 08:00N 40°39' W 074°06'0 0.0
2018-Jun-10 07:30N 40°39' W 074°06'0 0.0
2018-Jun-10 07:00N 40°39' W 074°06'0 0.0
2018-Jun-10 06:30N 40°39' W 074°06'0 0.0
2018-Jun-10 05:59N 40°39' W 074°06'0 0.0
2018-Jun-10 05:30N 40°39' W 074°06'0 0.0
2018-Jun-10 05:00N 40°39' W 074°06'0 0.0
2018-Jun-10 04:30N 40°39' W 074°06'0 0.0
2018-Jun-10 04:00N 40°39' W 074°06'0 0.0
2018-Jun-10 03:30N 40°39' W 074°06'0 0.0
2018-Jun-10 02:59N 40°39' W 074°06'0 0.0
2018-Jun-10 02:28N 40°39' W 074°06'0 0.0
2018-Jun-10 02:00N 40°39' W 074°06'0 0.0
2018-Jun-10 01:30N 40°39' W 074°06'0 0.0
2018-Jun-10 01:00N 40°39' W 074°06'0 0.0
2018-Jun-10 00:30N 40°39' W 074°06'0 0.0
2018-Jun-10 00:00N 40°39' W 074°06'0 0.0
2018-Jun-09 23:29N 40°39' W 074°06'1 2.9
2018-Jun-09 23:00N 40°39' W 074°08'3 3.4
2018-Jun-09 22:11N 40°41' W 074°08'1 3.0
2018-Jun-09 21:52N 40°42' W 074°09'0 0.1
2018-Jun-09 21:02N 40°42' W 074°09'2 0.6
2018-Jun-09 18:24N 40°41' W 074°08'2 5.0
2018-Jun-09 18:01N 40°39' W 074°07'1 2.8
2018-Jun-09 17:30N 40°39' W 074°09'2 0.5
2018-Jun-09 13:51N 40°39' W 074°11'3 8.5
2018-Jun-09 13:30N 40°39' W 074°07'4 8.6
2018-Jun-09 13:00N 40°40' W 074°02'1 2.1
2018-Jun-09 12:31N 40°40' W 074°01'0 0.0
2018-Jun-09 12:00N 40°40' W 074°01'0 0.0
2018-Jun-09 11:31N 40°40' W 074°01'0 0.0
2018-Jun-09 11:00N 40°40' W 074°01'0 0.0
2018-Jun-09 10:31N 40°40' W 074°01'0 0.0
2018-Jun-09 10:00N 40°40' W 074°01'0 0.0
2018-Jun-09 09:30N 40°40' W 074°01'0 0.0
2018-Jun-09 09:00N 40°40' W 074°01'0 0.0
2018-Jun-09 08:30N 40°40' W 074°01'0 0.0
2018-Jun-09 08:01N 40°40' W 074°01'0 0.0
2018-Jun-09 07:30N 40°40' W 074°01'0 0.0
2018-Jun-09 07:00N 40°40' W 074°01'0 0.0
2018-Jun-09 06:30N 40°40' W 074°01'0 0.0
2018-Jun-09 06:00N 40°40' W 074°01'0 0.0
2018-Jun-09 05:31N 40°40' W 074°01'0 0.0
2018-Jun-09 05:01N 40°40' W 074°01'0 0.0
2018-Jun-09 04:30N 40°40' W 074°01'0 0.0
2018-Jun-09 04:00N 40°40' W 074°01'0 0.0
2018-Jun-09 03:30N 40°40' W 074°01'0 0.0
2018-Jun-09 03:01N 40°40' W 074°01'0 0.0
2018-Jun-09 02:31N 40°40' W 074°01'0 0.0
2018-Jun-09 02:00N 40°40' W 074°01'0 0.0
2018-Jun-09 01:30N 40°40' W 074°01'0 0.0
2018-Jun-09 01:01N 40°40' W 074°01'0 0.0
2018-Jun-09 00:31N 40°40' W 074°01'0 0.0
2018-Jun-09 00:00N 40°40' W 074°01'0 0.0
2018-Jun-08 23:30N 40°40' W 074°01'0 0.0
2018-Jun-08 23:00N 40°40' W 074°01'0 0.0
2018-Jun-08 22:30N 40°40' W 074°01'0 0.0
2018-Jun-08 22:01N 40°40' W 074°01'0 0.0
2018-Jun-08 21:31N 40°40' W 074°01'0 0.0
2018-Jun-08 21:00N 40°40' W 074°01'0 0.0
2018-Jun-08 20:31N 40°40' W 074°01'0 0.0
2018-Jun-08 20:00N 40°40' W 074°01'0 0.0
2018-Jun-08 19:30N 40°40' W 074°01'0 0.0
2018-Jun-08 19:00N 40°40' W 074°01'0 0.0
2018-Jun-08 18:30N 40°40' W 074°01'0 0.0
2018-Jun-08 18:01N 40°40' W 074°01'0 0.0
2018-Jun-08 17:30N 40°40' W 074°01'0 0.0
2018-Jun-08 17:00N 40°40' W 074°01'0 0.0
2018-Jun-08 16:30N 40°40' W 074°01'0 0.2
2018-Jun-08 16:00N 40°40' W 074°01'2 3.1
2018-Jun-08 15:30N 40°41' W 074°00'3 5.7
2018-Jun-08 15:00N 40°40' W 074°03'4 7.5
2018-Jun-08 14:30N 40°39' W 074°08'1 1.2
2018-Jun-08 13:19N 40°40' W 074°09'0 0.2
2018-Jun-08 12:59N 40°40' W 074°09'0 0.2
2018-Jun-08 12:26N 40°40' W 074°09'0 0.0
2018-Jun-08 12:00N 40°40' W 074°09'0 0.1
2018-Jun-08 11:27N 40°40' W 074°09'0 0.2
2018-Jun-08 11:00N 40°40' W 074°09'0 0.1
2018-Jun-08 09:51N 40°40' W 074°09'0 0.0
2018-Jun-08 09:29N 40°40' W 074°09'0 0.0
2018-Jun-08 09:01N 40°40' W 074°09'0 0.0
2018-Jun-08 08:30N 40°40' W 074°09'1 2.2
2018-Jun-08 07:58N 40°39' W 074°09'4 8.4
2018-Jun-08 07:31N 40°40' W 074°04'3 5.4
2018-Jun-08 07:01N 40°41' W 074°01'1 2.3
2018-Jun-08 06:31N 40°40' W 074°01'0 0.0
2018-Jun-08 06:01N 40°40' W 074°01'0 0.0
2018-Jun-08 05:30N 40°40' W 074°01'0 0.0
2018-Jun-08 05:01N 40°40' W 074°01'0 0.0
2018-Jun-08 04:30N 40°40' W 074°01'0 0.0
2018-Jun-08 04:01N 40°40' W 074°01'0 0.0
2018-Jun-08 03:30N 40°40' W 074°01'0 0.0
2018-Jun-08 03:01N 40°40' W 074°01'0 0.0
2018-Jun-08 02:30N 40°40' W 074°01'0 0.0
2018-Jun-08 02:01N 40°40' W 074°01'0 0.0
2018-Jun-08 01:30N 40°40' W 074°01'0 0.0
2018-Jun-08 01:00N 40°40' W 074°01'0 0.0
2018-Jun-08 00:31N 40°40' W 074°01'0 0.0
2018-Jun-08 00:00N 40°40' W 074°01'0 0.0
2018-Jun-07 23:31N 40°40' W 074°01'0 0.0
2018-Jun-07 23:01N 40°40' W 074°01'0 0.0
2018-Jun-07 22:30N 40°40' W 074°01'0 0.0
2018-Jun-07 22:01N 40°40' W 074°01'0 0.0
2018-Jun-07 21:31N 40°40' W 074°01'0 0.0
2018-Jun-07 21:01N 40°40' W 074°01'0 0.0
2018-Jun-07 20:30N 40°40' W 074°01'0 0.0
2018-Jun-07 20:00N 40°40' W 074°01'0 0.7
2018-Jun-07 19:30N 40°40' W 074°01'4 7.9
2018-Jun-07 19:01N 40°39' W 074°06'0 0.0
2018-Jun-07 18:31N 40°39' W 074°06'0 0.0
2018-Jun-07 18:00N 40°39' W 074°06'1 2.3
2018-Jun-07 17:30N 40°39' W 074°07'  

Dump ship's entire track history